Portada
METAR-TAF:

METAR-TAF

Aeroports :

Irkutsk, Rússia

latitud: 52-16N, longitud: 104-19E, altitud: 513 m

Observació

L'informe es va fer fa 39 minuts, a les 14:00 UTC
Vent 4 kt del Est
Temperatura -9°C
Humitat 73%
Pressió 1028 hPa
Visibilitat 10 km o més
sense núvols per sota de 1500 mi sense presència de cumulonimbus.

METAR: UIII 231400Z 10002MPS CAVOK M09/M13 Q1028 R12/CLRD60 NOSIG RMK QFE728/0971

Hora: 22:39 (14:39 UTC)

Pronòstic

L'informe es va fer fa 3 hores i 39 minuts, a les 11:00 UTC
Pronòstic vàlid del 23 a les 12 UTC al 24 a les 12 UTC
Vent 4 kt del Sud/Sud-Est
Visibilitat 10 km o més
Núvols disperses a una alçada de 2000 ft, Cumulonimbus.
Temporalment
l' 23 a les 15 UTC al 24 a les 03 UTC
Visibilitat: 0500 m
a una alçada de 200 ft
boira gebradora
Evolucionant progressivament
l' 24 a les 03 UTC al 24 a les 05 UTC

TAF: UIII 231100Z 2312/2412 16002MPS 9999 SCT020CB TEMPO 2315/2403 0500 FZFG VV002 BECMG 2403/2405 NSC

Observacions i pronòstics meteorològics de més de 4000 aeroports (METAR i TAF).

Les estacions disponibles són els punts grocs i vermells al mapa.

Posi el ratolí al punt desitjat per veure el nom de l'estació.

Feu clic per veure les observacions i els pronòstics meteorològics.

Per canviar el mapa: feu clic els botons verds amb una creu de color negre per apropar; al botó verd amb un guió per allunyar la imatge; o en les fletxes verdes per a mapes adjacents.


METAR-TAF: